Time;durP1;ratioP1;P1;durP2;ratioP2;P2;SDS_P1;SDS_P2;PMS_P1;PMS_P2;Temp;Humidity;BMP_temperature;BMP_pressure;BME280_temperature;BME280_humidity;BME280_pressure;Samples;Min_cycle;Max_cycle;Signal;HPM_P1;HPM_P2
2022/10/21 00:00:13;;;;;;;5.13;4.73;;;11.00;99.90;;;;;;5127598;27;20719;-68
2022/10/21 00:02:40;;;;;;;5.20;4.77;;;10.90;99.90;;;;;;5128387;27;20221;-68
2022/10/21 00:05:07;;;;;;;4.97;4.43;;;11.00;99.90;;;;;;5128989;27;20204;-68
2022/10/21 00:07:36;;;;;;;5.37;4.87;;;11.00;99.90;;;;;;5128849;27;20224;-69
2022/10/21 00:10:03;;;;;;;5.13;4.73;;;10.90;99.90;;;;;;5127888;27;20213;-68
2022/10/21 00:12:31;;;;;;;5.80;5.27;;;10.90;99.90;;;;;;5128604;27;20630;-68
2022/10/21 00:14:58;;;;;;;5.97;4.73;;;10.90;99.90;;;;;;5128565;27;20655;-68
2022/10/21 00:17:25;;;;;;;6.77;4.50;;;10.90;99.90;;;;;;5128686;27;20197;-69
2022/10/21 00:19:52;;;;;;;5.53;5.00;;;10.90;99.90;;;;;;5128672;27;20236;-68
2022/10/21 00:22:18;;;;;;;5.60;4.30;;;10.90;99.90;;;;;;5128641;27;20213;-68
2022/10/21 00:24:46;;;;;;;5.60;5.00;;;10.90;99.90;;;;;;5128235;27;20205;-68
2022/10/21 00:27:13;;;;;;;5.30;4.87;;;10.90;99.90;;;;;;5128729;27;20232;-68
2022/10/21 00:29:40;;;;;;;5.80;5.00;;;10.90;99.90;;;;;;5128159;27;20670;-68
2022/10/21 00:32:07;;;;;;;5.97;5.03;;;10.90;99.90;;;;;;5128050;27;20197;-68
2022/10/21 00:34:34;;;;;;;5.73;4.70;;;10.90;99.90;;;;;;5126938;28;20566;-68
2022/10/21 00:37:00;;;;;;;6.93;4.53;;;10.90;99.90;;;;;;5128379;27;20207;-68
2022/10/21 00:39:27;;;;;;;5.10;4.70;;;10.90;99.90;;;;;;5128412;27;20203;-68
2022/10/21 00:41:55;;;;;;;5.87;5.33;;;11.00;99.90;;;;;;5128431;27;20248;-68
2022/10/21 00:44:22;;;;;;;5.40;5.00;;;11.00;99.90;;;;;;5128203;27;20209;-68
2022/10/21 00:46:51;;;;;;;5.77;5.13;;;10.90;99.90;;;;;;5128400;27;20205;-68
2022/10/21 00:49:24;;;;;;;9.00;5.20;;;10.90;99.90;;;;;;5128688;27;20201;-68
2022/10/21 00:51:54;;;;;;;5.63;5.13;;;11.00;99.90;;;;;;5128293;27;20671;-69
2022/10/21 00:54:24;;;;;;;8.53;5.53;;;10.90;99.90;;;;;;5128211;27;20551;-69
2022/10/21 00:56:54;;;;;;;5.20;4.73;;;10.90;99.90;;;;;;5125738;27;20201;-69
2022/10/21 00:59:23;;;;;;;5.70;5.10;;;10.90;99.90;;;;;;5108016;28;20568;-70
2022/10/21 01:01:50;;;;;;;5.37;4.87;;;10.90;99.90;;;;;;5107545;28;20237;-68
2022/10/21 01:04:17;;;;;;;5.80;4.87;;;10.90;99.90;;;;;;5107980;28;20198;-68
2022/10/21 01:06:46;;;;;;;5.93;4.90;;;10.90;99.90;;;;;;5118182;28;20209;-68
2022/10/21 01:09:13;;;;;;;8.63;5.03;;;10.90;99.90;;;;;;5128286;27;20259;-68
2022/10/21 01:11:43;;;;;;;5.50;4.90;;;10.90;99.90;;;;;;5121510;27;20202;-68
2022/10/21 01:14:32;;;;;;;6.43;5.17;;;10.90;99.90;;;;;;5111818;28;20292;-67
2022/10/21 01:17:07;;;;;;;5.33;4.93;;;10.90;99.90;;;;;;5111662;28;20226;-67
2022/10/21 01:20:00;;;;;;;6.43;4.80;;;10.90;99.90;;;;;;5111385;27;20196;-68
2022/10/21 01:22:44;;;;;;;8.33;5.47;;;10.90;99.90;;;;;;5111509;28;20210;-68
2022/10/21 01:25:31;;;;;;;7.00;5.43;;;10.90;99.90;;;;;;5118169;27;20193;-68
2022/10/21 01:28:07;;;;;;;6.10;5.50;;;10.90;99.90;;;;;;5131817;27;20194;-68
2022/10/21 01:30:39;;;;;;;5.47;5.07;;;10.90;99.90;;;;;;5131634;27;20192;-68
2022/10/21 01:33:22;;;;;;;5.30;4.90;;;10.90;99.90;;;;;;5119959;27;20677;-68
2022/10/21 01:35:54;;;;;;;6.13;5.50;;;10.90;99.90;;;;;;5111198;28;20537;-68
2022/10/21 01:38:28;;;;;;;6.13;5.37;;;10.90;99.90;;;;;;5113945;27;20195;-68
2022/10/21 01:40:58;;;;;;;5.73;5.33;;;10.90;99.90;;;;;;5113041;27;20222;-68
2022/10/21 01:43:35;;;;;;;6.10;5.23;;;11.00;99.90;;;;;;5111287;28;20289;-69
2022/10/21 01:46:10;;;;;;;9.83;5.30;;;11.00;99.90;;;;;;5123265;27;20678;-69
2022/10/21 01:48:43;;;;;;;5.40;5.00;;;11.00;99.90;;;;;;5131580;27;20193;-69
2022/10/21 01:51:12;;;;;;;5.53;5.10;;;11.00;99.90;;;;;;5131737;27;20551;-69
2022/10/21 01:53:42;;;;;;;5.57;5.07;;;11.00;99.90;;;;;;5131257;27;20212;-68
2022/10/21 01:56:11;;;;;;;7.33;5.60;;;10.90;99.90;;;;;;5131329;27;20206;-69
2022/10/21 01:58:41;;;;;;;7.53;5.50;;;11.00;99.90;;;;;;5130924;27;20205;-68
2022/10/21 02:01:11;;;;;;;7.43;5.77;;;10.90;99.90;;;;;;5130977;27;20229;-69
2022/10/21 02:03:42;;;;;;;6.57;5.07;;;10.90;99.90;;;;;;5130921;27;20206;-69
2022/10/21 02:06:11;;;;;;;6.30;5.70;;;10.90;99.90;;;;;;5131234;27;20204;-68
2022/10/21 02:08:38;;;;;;;6.17;5.67;;;10.90;99.90;;;;;;5123504;27;20285;-67
2022/10/21 02:11:08;;;;;;;6.73;5.87;;;10.90;99.90;;;;;;5130697;27;20213;-68
2022/10/21 02:13:40;;;;;;;6.30;5.70;;;10.90;99.90;;;;;;5131261;27;20217;-67
2022/10/21 02:16:13;;;;;;;6.57;5.60;;;10.90;99.90;;;;;;5130911;27;20226;-68
2022/10/21 02:18:40;;;;;;;6.80;5.87;;;10.90;99.90;;;;;;5130908;27;20197;-68
2022/10/21 02:21:10;;;;;;;5.57;5.17;;;10.90;99.90;;;;;;5130902;27;20230;-68
2022/10/21 02:23:42;;;;;;;7.13;5.67;;;10.90;99.90;;;;;;5115561;27;20197;-68
2022/10/21 02:26:09;;;;;;;5.90;5.40;;;10.90;99.90;;;;;;5130753;27;20193;-68
2022/10/21 02:28:36;;;;;;;6.30;5.57;;;10.90;99.90;;;;;;5130485;27;20724;-68
2022/10/21 02:31:16;;;;;;;6.93;5.37;;;10.90;99.90;;;;;;5130831;27;20209;-68
2022/10/21 02:33:51;;;;;;;5.50;5.00;;;10.90;99.90;;;;;;5129815;27;20209;-68
2022/10/21 02:36:29;;;;;;;5.93;5.33;;;10.90;99.90;;;;;;5130637;27;20208;-68
2022/10/21 02:39:01;;;;;;;6.00;5.53;;;10.80;99.90;;;;;;5130305;27;20197;-67
2022/10/21 02:41:29;;;;;;;5.70;5.20;;;10.80;99.90;;;;;;5130166;27;20236;-67
2022/10/21 02:43:59;;;;;;;6.47;5.73;;;10.80;99.90;;;;;;5130513;27;20202;-67
2022/10/21 02:46:34;;;;;;;5.73;5.23;;;10.80;99.90;;;;;;5130452;27;20201;-69
2022/10/21 02:49:01;;;;;;;6.47;5.80;;;10.80;99.90;;;;;;5130394;27;20196;-70
2022/10/21 02:51:28;;;;;;;7.40;5.73;;;10.90;99.90;;;;;;5109627;27;20697;-70
2022/10/21 02:53:55;;;;;;;5.83;5.33;;;10.80;99.90;;;;;;5109727;28;20214;-70
2022/10/21 02:56:21;;;;;;;7.77;5.37;;;10.90;99.90;;;;;;5109491;28;20212;-70
2022/10/21 02:58:48;;;;;;;5.90;5.40;;;10.90;99.90;;;;;;5115958;27;20205;-70
2022/10/21 03:01:15;;;;;;;6.73;6.13;;;10.90;99.90;;;;;;5129940;27;20237;-68
2022/10/21 03:03:43;;;;;;;5.73;5.23;;;10.90;99.90;;;;;;5125330;27;20194;-68
2022/10/21 03:06:09;;;;;;;6.80;6.07;;;10.90;99.90;;;;;;5109429;28;20546;-68
2022/10/21 03:08:36;;;;;;;6.70;6.13;;;10.90;99.90;;;;;;5109198;28;20695;-68
2022/10/21 03:11:03;;;;;;;8.60;6.13;;;10.90;99.90;;;;;;5109183;28;20217;-68
2022/10/21 03:13:30;;;;;;;6.77;5.93;;;10.90;99.90;;;;;;5109888;27;20210;-68
2022/10/21 03:15:57;;;;;;;5.80;5.30;;;10.90;99.90;;;;;;5129977;27;20248;-68
2022/10/21 03:18:24;;;;;;;6.20;5.60;;;10.90;99.90;;;;;;5129741;27;20202;-68
2022/10/21 03:20:52;;;;;;;6.10;5.40;;;10.90;99.90;;;;;;5129571;27;20851;-68
2022/10/21 03:23:20;;;;;;;6.87;6.10;;;10.90;99.90;;;;;;5117451;27;20284;-70
2022/10/21 03:25:47;;;;;;;5.83;5.43;;;10.90;99.90;;;;;;5128822;27;20209;-70
2022/10/21 03:28:14;;;;;;;6.53;5.90;;;10.90;99.90;;;;;;5129726;27;20197;-69
2022/10/21 03:30:41;;;;;;;5.87;5.33;;;10.90;99.90;;;;;;5129521;27;20205;-69
2022/10/21 03:33:08;;;;;;;6.23;5.50;;;11.00;99.90;;;;;;5117732;27;20206;-69
2022/10/21 03:35:35;;;;;;;6.40;5.90;;;10.90;99.90;;;;;;5108595;28;20208;-71
2022/10/21 03:38:03;;;;;;;6.10;5.47;;;10.90;99.90;;;;;;5109150;28;20202;-70
2022/10/21 03:40:30;;;;;;;6.00;5.37;;;10.90;99.90;;;;;;5124803;27;20198;-70
2022/10/21 03:42:57;;;;;;;5.87;5.23;;;10.90;99.90;;;;;;5129603;27;20208;-68
2022/10/21 03:45:23;;;;;;;6.40;5.80;;;10.90;99.90;;;;;;5128784;27;20576;-69
2022/10/21 03:47:51;;;;;;;6.20;5.70;;;10.90;99.90;;;;;;5108506;28;20762;-68
2022/10/21 03:50:18;;;;;;;6.50;5.90;;;10.90;99.90;;;;;;5108572;28;21127;-67
2022/10/21 03:52:45;;;;;;;6.03;5.43;;;10.90;99.90;;;;;;5114692;27;20823;-68
2022/10/21 03:55:13;;;;;;;9.10;6.53;;;10.90;99.90;;;;;;5122706;27;20227;-68
2022/10/21 03:57:40;;;;;;;6.63;5.80;;;10.90;99.90;;;;;;5126370;27;20197;-67
2022/10/21 04:00:08;;;;;;;6.73;6.20;;;10.90;99.90;;;;;;5126167;27;20205;-67
2022/10/21 04:02:34;;;;;;;6.67;6.17;;;10.90;99.90;;;;;;5126298;27;20265;-67
2022/10/21 04:05:01;;;;;;;6.60;5.97;;;10.90;99.90;;;;;;5126808;27;20208;-67
2022/10/21 04:07:28;;;;;;;6.57;6.07;;;10.80;99.90;;;;;;5126964;27;20210;-67
2022/10/21 04:09:55;;;;;;;7.47;6.77;;;10.80;99.90;;;;;;5126304;27;20765;-67
2022/10/21 04:12:23;;;;;;;7.20;6.50;;;10.80;99.90;;;;;;5127363;27;20251;-67
2022/10/21 04:14:49;;;;;;;7.00;6.40;;;10.80;99.90;;;;;;5120980;27;20202;-68
2022/10/21 04:17:16;;;;;;;7.23;6.40;;;10.90;99.90;;;;;;5126537;27;20209;-68
2022/10/21 04:19:43;;;;;;;6.93;6.33;;;10.80;99.90;;;;;;5127017;27;20212;-68
2022/10/21 04:22:10;;;;;;;6.90;6.30;;;10.80;99.90;;;;;;5126822;27;20271;-68
2022/10/21 04:24:36;;;;;;;7.03;6.33;;;10.90;99.90;;;;;;5126392;27;20212;-69
2022/10/21 04:27:04;;;;;;;6.77;6.17;;;10.90;99.90;;;;;;5126464;27;20212;-69
2022/10/21 04:29:32;;;;;;;7.27;6.67;;;10.80;99.90;;;;;;5123704;27;20206;-69
2022/10/21 04:31:58;;;;;;;7.17;6.47;;;10.80;99.90;;;;;;5126220;27;20202;-69
2022/10/21 04:34:25;;;;;;;7.03;6.33;;;10.90;99.90;;;;;;5126949;27;20248;-69
2022/10/21 04:36:52;;;;;;;7.73;6.57;;;10.90;99.90;;;;;;5126536;27;20205;-69
2022/10/21 04:39:19;;;;;;;6.87;6.33;;;10.90;99.90;;;;;;5126085;27;20675;-69
2022/10/21 04:41:48;;;;;;;7.57;6.67;;;10.90;99.90;;;;;;5124724;27;20233;-69
2022/10/21 04:44:15;;;;;;;9.03;6.27;;;10.90;99.90;;;;;;5123000;28;20197;-70
2022/10/21 04:46:43;;;;;;;7.73;6.70;;;10.90;99.90;;;;;;5128400;27;20209;-70
2022/10/21 04:49:10;;;;;;;6.60;6.07;;;10.90;99.90;;;;;;5129767;27;20210;-70
2022/10/21 04:51:37;;;;;;;8.40;7.13;;;10.90;99.90;;;;;;5125950;27;20224;-69
2022/10/21 04:54:03;;;;;;;7.90;7.10;;;10.90;99.90;;;;;;5109742;28;20197;-70
2022/10/21 04:56:30;;;;;;;7.27;6.67;;;10.90;99.90;;;;;;5128287;27;20689;-69
2022/10/21 04:58:57;;;;;;;7.13;6.53;;;10.90;99.90;;;;;;5130639;27;20197;-68
2022/10/21 05:01:24;;;;;;;9.60;6.73;;;10.90;99.90;;;;;;5130365;27;20237;-68
2022/10/21 05:03:52;;;;;;;9.07;6.70;;;10.90;99.90;;;;;;5129890;27;20197;-69
2022/10/21 05:06:19;;;;;;;7.10;6.40;;;10.90;99.90;;;;;;5132389;27;20202;-69
2022/10/21 05:08:46;;;;;;;7.97;6.50;;;10.90;99.90;;;;;;5132325;27;20208;-68
2022/10/21 05:11:12;;;;;;;10.80;6.50;;;10.90;99.90;;;;;;5130578;27;20209;-69
2022/10/21 05:13:39;;;;;;;7.13;6.53;;;10.90;99.90;;;;;;5132028;27;20209;-69
2022/10/21 05:16:06;;;;;;;7.17;6.57;;;10.90;99.90;;;;;;5131894;27;20236;-69
2022/10/21 05:18:33;;;;;;;7.40;6.43;;;10.90;99.90;;;;;;5131708;27;20205;-69
2022/10/21 05:21:01;;;;;;;7.53;6.53;;;10.90;99.90;;;;;;5132297;27;20201;-69
2022/10/21 05:23:28;;;;;;;7.87;7.10;;;10.90;99.90;;;;;;5112497;27;20210;-69
2022/10/21 05:25:55;;;;;;;7.50;6.80;;;10.90;99.90;;;;;;5111107;27;20370;-69
2022/10/21 05:28:22;;;;;;;7.27;6.57;;;10.90;99.90;;;;;;5111716;28;20217;-69
2022/10/21 05:30:49;;;;;;;7.83;7.13;;;10.90;99.90;;;;;;5111176;28;20664;-69
2022/10/21 05:33:16;;;;;;;7.33;6.77;;;10.90;99.90;;;;;;5111212;28;20217;-69
2022/10/21 05:35:43;;;;;;;7.80;7.10;;;10.90;99.90;;;;;;5131362;27;20284;-69
2022/10/21 05:38:13;;;;;;;7.90;6.43;;;10.90;99.90;;;;;;5129460;27;20216;-69
2022/10/21 05:40:40;;;;;;;7.43;6.63;;;10.90;99.90;;;;;;5110606;28;20187;-69
2022/10/21 05:43:06;;;;;;;8.03;7.20;;;10.90;99.90;;;;;;5110933;28;20234;-68
2022/10/21 05:45:33;;;;;;;7.07;6.43;;;10.80;99.90;;;;;;5110546;28;20210;-69
2022/10/21 05:48:00;;;;;;;7.30;6.60;;;10.80;99.90;;;;;;5121459;27;20205;-68
2022/10/21 05:50:27;;;;;;;7.83;7.13;;;10.80;99.90;;;;;;5131188;27;20205;-68
2022/10/21 05:52:57;;;;;;;6.60;6.10;;;10.80;99.90;;;;;;5116970;27;20209;-68
2022/10/21 05:55:25;;;;;;;8.33;6.63;;;10.80;99.90;;;;;;5119984;27;20201;-68
2022/10/21 05:57:52;;;;;;;8.17;6.80;;;10.80;99.90;;;;;;5131492;27;20205;-68
2022/10/21 06:00:19;;;;;;;7.83;7.03;;;10.80;99.90;;;;;;5131267;27;20566;-68
2022/10/21 06:02:45;;;;;;;6.93;6.37;;;10.80;99.90;;;;;;5131050;27;20244;-68
2022/10/21 06:05:12;;;;;;;8.23;6.90;;;10.90;99.90;;;;;;5130898;27;20205;-68
2022/10/21 06:07:39;;;;;;;7.20;6.60;;;10.90;99.90;;;;;;5126528;27;20229;-68
2022/10/21 06:10:07;;;;;;;7.80;7.20;;;10.90;99.90;;;;;;5110397;28;20206;-69
2022/10/21 06:12:35;;;;;;;7.23;6.73;;;10.90;99.90;;;;;;5110428;28;20550;-68
2022/10/21 06:15:02;;;;;;;7.10;6.50;;;10.90;99.90;;;;;;5110792;28;20579;-69
2022/10/21 06:17:28;;;;;;;8.10;6.87;;;10.90;99.90;;;;;;5128766;27;20202;-69
2022/10/21 06:19:55;;;;;;;8.33;6.93;;;10.90;99.90;;;;;;5131627;27;20209;-69
2022/10/21 06:22:22;;;;;;;9.37;7.40;;;10.90;99.90;;;;;;5111342;27;20229;-67
2022/10/21 06:24:49;;;;;;;7.83;7.13;;;10.90;99.90;;;;;;5110309;28;20233;-67
2022/10/21 06:27:16;;;;;;;7.87;6.80;;;11.00;99.90;;;;;;5110484;28;20206;-67
2022/10/21 06:29:44;;;;;;;7.40;6.70;;;10.90;99.90;;;;;;5110268;28;20485;-67
2022/10/21 06:32:11;;;;;;;7.80;6.87;;;10.90;99.90;;;;;;5110209;27;20240;-67
2022/10/21 06:34:38;;;;;;;8.03;7.23;;;10.90;99.90;;;;;;5119792;27;20198;-68
2022/10/21 06:37:05;;;;;;;9.83;7.83;;;11.00;99.90;;;;;;5130936;27;20197;-67
2022/10/21 06:39:32;;;;;;;9.00;7.30;;;11.00;99.90;;;;;;5130430;27;20397;-67
2022/10/21 06:41:58;;;;;;;8.13;7.33;;;11.00;99.90;;;;;;5130618;27;20225;-67
2022/10/21 06:44:25;;;;;;;8.00;7.40;;;11.00;99.90;;;;;;5129762;27;20205;-67
2022/10/21 06:46:53;;;;;;;7.53;6.93;;;11.00;99.90;;;;;;5130587;27;20541;-68
2022/10/21 06:49:20;;;;;;;8.03;7.13;;;11.10;99.90;;;;;;5129979;27;20735;-68
2022/10/21 06:51:47;;;;;;;9.17;7.70;;;11.10;99.90;;;;;;5124984;27;20210;-68
2022/10/21 06:54:14;;;;;;;8.10;7.27;;;11.10;99.90;;;;;;5109625;28;20198;-68
2022/10/21 06:56:40;;;;;;;7.63;7.03;;;11.10;99.90;;;;;;5129476;27;20784;-67
2022/10/21 06:59:07;;;;;;;7.60;7.00;;;11.10;99.90;;;;;;5130138;27;20221;-67
2022/10/21 07:01:35;;;;;;;7.87;7.17;;;11.10;99.90;;;;;;5129782;27;20244;-67
2022/10/21 07:04:04;;;;;;;8.23;7.40;;;11.10;99.90;;;;;;5127965;27;20201;-67
2022/10/21 07:06:32;;;;;;;8.70;7.00;;;11.10;99.90;;;;;;5129498;27;20732;-67
2022/10/21 07:08:59;;;;;;;9.40;6.97;;;11.20;99.90;;;;;;5129201;27;20205;-67
2022/10/21 07:11:26;;;;;;;8.80;8.00;;;11.20;99.90;;;;;;5129556;27;20208;-67
2022/10/21 07:13:53;;;;;;;9.00;7.33;;;11.20;99.90;;;;;;5129963;27;20213;-67
2022/10/21 07:16:23;;;;;;;8.30;7.60;;;11.20;99.90;;;;;;5129491;27;20213;-67
2022/10/21 07:18:50;;;;;;;8.03;7.33;;;11.20;99.90;;;;;;5128626;27;20190;-67
2022/10/21 07:21:20;;;;;;;8.70;7.80;;;11.20;99.90;;;;;;5128305;27;20684;-68
2022/10/21 07:23:49;;;;;;;8.80;8.00;;;11.20;99.90;;;;;;5109173;28;20226;-67
2022/10/21 07:26:17;;;;;;;10.60;9.57;;;11.20;99.90;;;;;;5108614;28;20214;-67
2022/10/21 07:28:46;;;;;;;11.20;10.10;;;11.20;99.90;;;;;;5108834;27;20210;-67
2022/10/21 07:31:13;;;;;;;8.40;7.60;;;11.20;99.90;;;;;;5108914;28;20234;-67
2022/10/21 07:33:42;;;;;;;8.53;7.73;;;11.20;99.90;;;;;;5109079;28;20206;-67
2022/10/21 07:36:11;;;;;;;8.07;7.23;;;11.20;99.90;;;;;;5117532;27;20197;-67
2022/10/21 07:38:40;;;;;;;9.47;8.00;;;11.20;99.90;;;;;;5129232;27;20212;-67
2022/10/21 07:41:06;;;;;;;8.53;7.73;;;11.30;99.90;;;;;;5128366;27;20216;-67
2022/10/21 07:43:34;;;;;;;8.33;7.63;;;11.20;99.90;;;;;;5129141;27;20237;-67
2022/10/21 07:46:01;;;;;;;8.27;7.43;;;11.30;99.90;;;;;;5115290;27;20214;-67
2022/10/21 07:48:27;;;;;;;8.77;7.40;;;11.30;99.90;;;;;;5108655;28;20210;-67
2022/10/21 07:50:54;;;;;;;10.07;7.83;;;11.30;99.90;;;;;;5108404;28;20314;-67
2022/10/21 07:53:24;;;;;;;8.20;7.43;;;11.30;99.90;;;;;;5108239;28;20689;-67
2022/10/21 07:56:03;;;;;;;8.60;7.63;;;11.30;99.90;;;;;;5125096;27;20210;-67
2022/10/21 07:58:30;;;;;;;8.30;7.60;;;11.40;99.90;;;;;;5129108;27;20665;-67
2022/10/21 08:00:58;;;;;;;8.37;7.57;;;11.40;99.90;;;;;;5108169;28;20205;-68
2022/10/21 08:03:25;;;;;;;10.67;7.73;;;11.50;99.90;;;;;;5108272;28;20234;-67
2022/10/21 08:05:52;;;;;;;8.60;7.73;;;11.40;99.90;;;;;;5126149;27;20227;-67
2022/10/21 08:08:20;;;;;;;8.33;7.43;;;11.40;99.90;;;;;;5128952;27;20213;-67
2022/10/21 08:10:47;;;;;;;9.60;7.77;;;11.50;99.90;;;;;;5128512;27;20201;-67
2022/10/21 08:13:16;;;;;;;9.20;7.27;;;11.50;99.90;;;;;;5129170;27;20213;-67
2022/10/21 08:15:42;;;;;;;8.03;7.27;;;11.50;99.90;;;;;;5128172;27;20232;-67
2022/10/21 08:18:09;;;;;;;8.97;8.10;;;11.50;99.90;;;;;;5128778;27;20212;-67
2022/10/21 08:20:38;;;;;;;8.90;7.67;;;11.60;99.90;;;;;;5127569;27;20680;-67
2022/10/21 08:23:06;;;;;;;10.60;7.77;;;11.60;99.90;;;;;;5112323;27;20319;-68
2022/10/21 08:25:32;;;;;;;8.90;8.10;;;11.60;99.90;;;;;;5107682;28;20241;-67
2022/10/21 08:27:59;;;;;;;9.10;8.20;;;11.60;99.90;;;;;;5122613;27;20569;-67
2022/10/21 08:30:28;;;;;;;9.13;7.93;;;11.70;99.90;;;;;;5128526;27;20540;-68
2022/10/21 08:32:55;;;;;;;9.43;7.90;;;11.70;99.90;;;;;;5128043;27;20247;-67
2022/10/21 08:35:22;;;;;;;9.63;7.57;;;11.70;99.90;;;;;;5128613;27;20209;-67
2022/10/21 08:37:49;;;;;;;9.97;7.50;;;11.80;99.90;;;;;;5128178;27;20597;-68
2022/10/21 08:40:17;;;;;;;11.37;7.67;;;11.80;99.90;;;;;;5128132;27;20656;-67
2022/10/21 08:42:44;;;;;;;11.50;7.80;;;11.90;99.90;;;;;;5128354;27;20228;-67
2022/10/21 08:45:19;;;;;;;7.83;7.13;;;11.90;99.90;;;;;;5128462;27;20216;-67
2022/10/21 08:47:53;;;;;;;12.73;7.73;;;12.00;99.90;;;;;;5120540;27;20236;-67
2022/10/21 08:50:23;;;;;;;8.67;7.77;;;12.10;99.90;;;;;;5108139;28;20194;-67
2022/10/21 08:52:54;;;;;;;8.13;7.50;;;12.20;99.90;;;;;;5108011;28;20218;-67
2022/10/21 08:55:23;;;;;;;8.43;7.30;;;12.30;99.90;;;;;;5112498;28;20198;-67
2022/10/21 08:57:53;;;;;;;9.37;8.13;;;12.40;99.90;;;;;;5128334;27;20209;-67
2022/10/21 09:00:21;;;;;;;8.80;7.87;;;12.40;99.90;;;;;;5128129;27;20668;-67
2022/10/21 09:03:07;;;;;;;9.63;7.50;;;12.50;99.90;;;;;;5127454;27;20344;-67
2022/10/21 09:05:46;;;;;;;8.53;7.60;;;12.50;99.90;;;;;;5128237;27;20200;-67
2022/10/21 09:08:21;;;;;;;8.13;7.43;;;12.50;99.90;;;;;;5128364;27;20198;-67
2022/10/21 09:11:01;;;;;;;8.43;7.70;;;12.50;99.90;;;;;;5127838;27;20250;-67
2022/10/21 09:13:56;;;;;;;8.67;7.50;;;12.60;99.90;;;;;;5127876;27;20194;-67
2022/10/21 09:16:32;;;;;;;8.07;7.23;;;12.70;99.90;;;;;;5128041;27;20225;-68
2022/10/21 09:19:10;;;;;;;9.20;7.57;;;12.70;99.90;;;;;;5128421;27;20194;-67
2022/10/21 09:21:44;;;;;;;8.87;8.03;;;12.70;99.90;;;;;;5127912;27;20724;-67
2022/10/21 09:24:15;;;;;;;8.60;7.80;;;12.80;99.90;;;;;;5117109;27;20225;-67
2022/10/21 09:26:43;;;;;;;7.90;7.27;;;12.80;99.90;;;;;;5107213;28;20699;-67
2022/10/21 09:29:28;;;;;;;11.47;7.77;;;12.80;99.90;;;;;;5107659;28;20205;-67
2022/10/21 09:32:00;;;;;;;8.13;7.43;;;12.90;99.90;;;;;;5109086;27;20228;-67
2022/10/21 09:34:40;;;;;;;8.60;7.80;;;13.00;99.90;;;;;;5131812;27;20193;-68
2022/10/21 09:37:13;;;;;;;9.37;7.43;;;13.00;99.90;;;;;;5131593;27;20208;-67
2022/10/21 09:39:45;;;;;;;8.43;7.77;;;13.00;99.90;;;;;;5131677;27;20197;-67
2022/10/21 09:42:13;;;;;;;8.43;7.47;;;13.10;99.90;;;;;;5131474;27;20204;-67
2022/10/21 09:44:40;;;;;;;8.37;7.57;;;13.10;99.90;;;;;;5131435;27;20593;-67
2022/10/21 09:47:19;;;;;;;8.90;7.30;;;13.30;99.90;;;;;;5131291;27;20281;-67
2022/10/21 09:49:50;;;;;;;8.10;7.30;;;13.40;99.90;;;;;;5131380;27;20242;-68
2022/10/21 09:52:20;;;;;;;8.17;7.37;;;13.40;99.90;;;;;;5120369;27;20198;-67
2022/10/21 09:54:48;;;;;;;7.87;7.03;;;13.50;99.90;;;;;;5110588;28;20223;-67
2022/10/21 09:57:18;;;;;;;8.23;7.43;;;13.50;99.90;;;;;;5110801;28;20206;-68
2022/10/21 09:59:53;;;;;;;8.13;7.33;;;13.50;99.90;;;;;;5110700;28;20194;-67
2022/10/21 10:02:27;;;;;;;8.60;7.37;;;13.60;99.90;;;;;;5110319;28;20237;-67
2022/10/21 10:04:55;;;;;;;7.73;6.90;;;13.60;99.90;;;;;;5110805;28;20295;-67
2022/10/21 10:07:32;;;;;;;7.17;6.47;;;13.60;99.90;;;;;;5129472;27;20205;-67
2022/10/21 10:09:59;;;;;;;7.70;7.00;;;13.60;99.90;;;;;;5130851;27;20683;-67
2022/10/21 10:12:27;;;;;;;7.63;7.03;;;13.60;99.90;;;;;;5130462;27;20202;-67
2022/10/21 10:14:54;;;;;;;8.63;6.93;;;13.70;99.90;;;;;;5130599;27;20708;-67
2022/10/21 10:17:32;;;;;;;7.27;6.67;;;13.70;99.90;;;;;;5130772;27;20659;-67
2022/10/21 10:20:14;;;;;;;7.57;6.63;;;13.80;99.90;;;;;;5123954;27;20283;-68
2022/10/21 10:22:43;;;;;;;7.37;6.47;;;14.00;99.90;;;;;;5109848;28;20234;-68
2022/10/21 10:25:17;;;;;;;7.03;6.47;;;14.10;99.90;;;;;;5109998;28;20210;-67
2022/10/21 10:27:48;;;;;;;6.60;6.00;;;14.20;99.90;;;;;;5110005;28;20197;-67
2022/10/21 10:30:16;;;;;;;7.70;6.27;;;14.20;99.90;;;;;;5110515;27;20217;-67
2022/10/21 10:32:44;;;;;;;7.93;6.40;;;14.20;99.90;;;;;;5117857;27;20212;-67
2022/10/21 10:35:24;;;;;;;8.57;6.30;;;14.20;99.90;;;;;;5130380;27;20201;-67
2022/10/21 10:37:51;;;;;;;8.60;6.60;;;14.20;99.90;;;;;;5130217;27;20200;-67
2022/10/21 10:40:23;;;;;;;8.73;6.90;;;14.40;99.90;;;;;;5130200;27;20200;-67
2022/10/21 10:42:53;;;;;;;7.30;6.57;;;14.50;99.90;;;;;;5129801;27;20701;-67
2022/10/21 10:45:22;;;;;;;7.33;6.63;;;14.60;99.90;;;;;;5129610;27;20193;-67
2022/10/21 10:47:53;;;;;;;8.87;6.40;;;14.70;99.90;;;;;;5130224;27;20209;-67
2022/10/21 10:50:47;;;;;;;6.93;6.27;;;14.70;99.90;;;;;;5130123;27;20204;-68
2022/10/21 10:53:36;;;;;;;9.50;6.70;;;14.80;99.90;;;;;;5129778;27;20201;-67
2022/10/21 10:56:13;;;;;;;8.03;6.67;;;14.90;99.90;;;;;;5124890;27;20216;-67
2022/10/21 10:58:45;;;;;;;6.13;5.63;;;15.00;99.90;;;;;;5129689;27;20648;-67
2022/10/21 11:01:20;;;;;;;6.63;6.00;;;15.10;99.90;;;;;;5129334;27;20190;-67
2022/10/21 11:03:54;;;;;;;6.13;5.63;;;15.10;99.90;;;;;;5109329;28;20225;-67
2022/10/21 11:06:33;;;;;;;6.77;6.17;;;15.20;99.90;;;;;;5109558;27;20209;-67
2022/10/21 11:09:02;;;;;;;6.80;5.97;;;15.30;99.90;;;;;;5109328;28;20186;-67
2022/10/21 11:11:34;;;;;;;6.67;6.10;;;15.40;99.90;;;;;;5114026;27;20200;-67
2022/10/21 11:14:00;;;;;;;6.70;6.20;;;15.30;99.90;;;;;;5129814;27;20831;-67
2022/10/21 11:17:05;;;;;;;6.33;5.73;;;15.30;99.90;;;;;;5121107;27;20573;-67
2022/10/21 11:19:42;;;;;;;6.60;6.10;;;15.30;99.90;;;;;;5105832;28;20233;-67
2022/10/21 11:22:15;;;;;;;7.50;6.50;;;15.20;99.90;;;;;;5109039;28;20896;-67
2022/10/21 11:24:55;;;;;;;6.77;6.17;;;15.10;99.90;;;;;;5111951;27;20672;-67
2022/10/21 11:27:33;;;;;;;7.47;6.47;;;15.00;99.90;;;;;;5129275;27;20266;-68
2022/10/21 11:30:09;;;;;;;7.87;6.20;;;15.00;99.90;;;;;;5129605;27;20205;-67
2022/10/21 11:32:51;;;;;;;6.33;5.83;;;15.00;99.90;;;;;;5122316;27;20186;-67
2022/10/21 11:35:37;;;;;;;7.07;6.47;;;15.00;99.90;;;;;;5109261;28;20209;-67
2022/10/21 11:38:30;;;;;;;7.10;6.60;;;15.10;99.90;;;;;;5109112;28;20190;-68
2022/10/21 11:41:02;;;;;;;6.47;5.87;;;15.10;99.90;;;;;;5108597;28;20762;-68
2022/10/21 11:43:38;;;;;;;7.63;6.93;;;15.10;99.90;;;;;;5110842;27;20263;-68
2022/10/21 11:46:11;;;;;;;7.13;6.30;;;15.10;99.90;;;;;;5128202;27;20555;-68
2022/10/21 11:48:51;;;;;;;9.63;7.10;;;15.20;99.90;;;;;;5128827;27;20279;-68
2022/10/21 11:51:30;;;;;;;6.53;5.90;;;15.20;99.90;;;;;;5128556;27;20608;-68
2022/10/21 11:54:20;;;;;;;7.37;6.67;;;15.30;99.90;;;;;;5108357;28;20202;-69
2022/10/21 11:56:53;;;;;;;7.30;6.47;;;15.40;99.90;;;;;;5108360;28;20190;-69
2022/10/21 11:59:44;;;;;;;10.70;6.63;;;15.50;99.90;;;;;;5109031;28;20198;-68
2022/10/21 12:02:16;;;;;;;7.10;6.50;;;15.60;99.90;;;;;;5108316;28;20237;-69
2022/10/21 12:04:51;;;;;;;8.40;7.40;;;15.60;99.90;;;;;;5120933;27;20522;-68
2022/10/21 12:07:32;;;;;;;7.40;6.17;;;15.60;99.90;;;;;;5129194;27;20615;-69
2022/10/21 12:10:04;;;;;;;7.53;6.83;;;15.50;99.90;;;;;;5128825;27;20200;-69
2022/10/21 12:12:34;;;;;;;7.33;6.53;;;15.50;99.90;;;;;;5128677;27;20196;-68
2022/10/21 12:15:04;;;;;;;7.13;6.47;;;15.60;99.90;;;;;;5129077;27;20584;-68
2022/10/21 12:17:34;;;;;;;8.10;7.30;;;15.70;99.90;;;;;;5128612;27;20201;-68
2022/10/21 12:20:05;;;;;;;7.93;6.93;;;15.80;99.90;;;;;;5128857;27;20192;-68
2022/10/21 12:22:33;;;;;;;6.57;5.97;;;15.90;99.90;;;;;;5117034;27;20262;-69
2022/10/21 12:25:12;;;;;;;8.60;7.00;;;15.80;99.90;;;;;;5128152;27;20236;-68
2022/10/21 12:27:44;;;;;;;7.23;6.43;;;15.80;99.90;;;;;;5128665;27;20197;-68
2022/10/21 12:30:16;;;;;;;7.17;6.60;;;15.80;99.90;;;;;;5128845;27;20201;-68
2022/10/21 12:32:49;;;;;;;6.93;6.33;;;15.70;99.90;;;;;;5127625;27;20181;-69
2022/10/21 12:35:21;;;;;;;7.50;6.80;;;15.60;99.90;;;;;;5128251;27;20201;-68
2022/10/21 12:38:21;;;;;;;8.33;6.70;;;15.60;99.90;;;;;;5128503;27;20196;-68
2022/10/21 12:40:50;;;;;;;7.50;6.80;;;15.50;99.90;;;;;;5127708;27;20672;-69
2022/10/21 12:43:21;;;;;;;7.70;6.53;;;15.50;99.90;;;;;;5128483;27;20209;-68
2022/10/21 12:46:03;;;;;;;7.80;6.50;;;15.50;99.90;;;;;;5128060;27;20197;-68
2022/10/21 12:48:37;;;;;;;7.00;6.37;;;15.40;99.90;;;;;;5128144;27;20197;-68
2022/10/21 12:51:07;;;;;;;7.17;6.57;;;15.40;99.90;;;;;;5128059;27;20204;-68
2022/10/21 12:53:38;;;;;;;10.10;6.60;;;15.40;99.90;;;;;;5128235;27;20208;-69
2022/10/21 12:56:08;;;;;;;6.90;6.30;;;15.30;99.90;;;;;;5127983;27;20193;-68
2022/10/21 12:58:40;;;;;;;7.10;6.40;;;15.20;99.90;;;;;;5128283;27;20225;-68
2022/10/21 13:01:31;;;;;;;8.47;6.77;;;15.20;99.90;;;;;;5127907;27;20657;-69